メインページ
METAR-TAF:

METAR-TAF

空港 :

グアテマラシティ, グアテマラ

ラ・アウロラ国際空港

緯度: 14-35N, 経度: 090-31W, 海抜: 1489m

現時点の気象観測

当レポートは27分前の17:00(UTC)に作成
無風
気温 24°C
湿度 69%
気圧 1024 hPa
視程10km以上
高度1800ftの千切れ雲あり
高度8000ftの雲はほとんどない
高度20000ftの雲はほとんどない

METAR: MGGT 231700Z 00000KT 9999 BKN018 24/18 Q1024 A3024 FEW080 FEW200

時間: 11:27 (17:27 UTC)

予報

当レポートは6時間27分前の11:00(UTC)に作成
予報は23日の 12時(UTC)から 24日の 12時(UTC)まで有効
の風 8kt
視程10km以上
高度1400ftの千切れ雲あり
高度9000ftの千切れ雲あり
23日の 15時(UTC)から 23日の 17時(UTC)まで徐々に
の風 8kt
高度1800ftの雲は散在している
23日の 21時(UTC)から 24日の 06時(UTC)まで一時的に
視程: 8000m
高度2500ftの雲はほとんどない, 積乱雲.
激しい雷雨, 雨
24日の 01時(UTC)から 24日の 03時(UTC)まで徐々に
の風 8kt
高度1600ftの雲は散在している
24日の 07時(UTC)から 24日の 12時(UTC)まで一時的に
高度1600ftの千切れ雲あり

TAF: MGGT 231100Z 2312/2412 36008KT 9999 BKN014 BKN090 TX26/2320Z TN17/2312Z BECMG 2315/2317 18008KT SCT018 TEMPO 2321/2406 8000 TSRA FEW025CB BECMG 2401/2403 36008KT SCT016 TEMPO 2407/2412 BKN016

4,000以上の空港の気象観測と天気予報(METAR報とTAF報)

利用可能な観測所は地図上に黄色い丸と赤い丸で示す。

丸の上にカーソルを重ねると観測所名を参照できる。

次にクリックすると気象観測と天気予報を参照できる。

マップの切り替え:黒色「×」印の緑ボタンをクリックして拡大、「-」印の緑ボタンをクリックして縮小、緑色の三角印をクリックして隣りの地図に切り替え


METAR-TAF: